Time;durP1;ratioP1;P1;durP2;ratioP2;P2;SDS_P1;SDS_P2;PMS_P1;PMS_P2;Temp;Humidity;BMP_temperature;BMP_pressure;BME280_temperature;BME280_humidity;BME280_pressure;Samples;Min_cycle;Max_cycle;Signal;HPM_P1;HPM_P2
2023/08/29 00:02:30;;;;;;;3.30;1.85;;;;;;;14.68;81.01;101368.50;7394008;19;20360;-77
2023/08/29 00:04:59;;;;;;;;;;;;;;;14.44;82.29;101361.56;7398262;19;19929;-77
2023/08/29 00:07:27;;;;;;;2.45;1.70;;;;;;;14.59;81.27;101358.81;7395482;19;19986;-77
2023/08/29 00:09:56;;;;;;;6.07;2.45;;;;;;;14.56;81.33;101361.91;7396617;19;20502;-78
2023/08/29 00:12:27;;;;;;;4.70;1.50;;;;;;;14.52;81.12;101373.16;7395107;19;19937;-77
2023/08/29 00:14:56;;;;;;;2.60;1.35;;;;;;;14.48;81.47;101368.28;7395040;19;19915;-77
2023/08/29 00:17:26;;;;;;;5.15;1.52;;;;;;;14.45;81.92;101361.38;7394648;19;19922;-77
2023/08/29 00:19:55;;;;;;;4.38;2.10;;;;;;;14.44;81.43;101367.84;7394885;19;19941;-78
2023/08/29 00:22:24;;;;;;;4.05;1.50;;;;;;;14.45;81.70;101368.69;7393233;19;19946;-77
2023/08/29 00:24:53;;;;;;;2.85;1.50;;;;;;;14.42;81.73;101359.03;7396277;19;19922;-77
2023/08/29 00:27:22;;;;;;;2.95;1.63;;;;;;;14.41;81.85;101348.41;7394986;19;19922;-77
2023/08/29 00:29:53;;;;;;;4.90;1.80;;;;;;;14.39;82.37;101347.75;7396187;19;19953;-78
2023/08/29 00:32:21;;;;;;;4.22;1.75;;;;;;;14.35;82.31;101344.59;7395487;19;19923;-77
2023/08/29 00:34:50;;;;;;;3.75;1.50;;;;;;;14.32;81.80;101336.81;7393801;19;19924;-77
2023/08/29 00:37:19;;;;;;;4.18;1.77;;;;;;;14.29;81.84;101336.31;7396138;19;19970;-78
2023/08/29 00:39:47;;;;;;;2.67;1.50;;;;;;;14.27;81.87;101333.81;7396019;19;19922;-78
2023/08/29 00:42:16;;;;;;;4.07;1.80;;;;;;;14.24;82.27;101336.88;7401430;19;20260;-77
2023/08/29 00:44:45;;;;;;;3.55;2.05;;;;;;;14.23;82.12;101337.94;7400978;19;19929;-77
2023/08/29 00:47:16;;;;;;;3.80;2.03;;;;;;;14.22;82.19;101332.69;7401812;19;19914;-78
2023/08/29 00:49:45;;;;;;;2.22;1.80;;;;;;;14.19;82.41;101335.81;7400417;19;19922;-77
2023/08/29 00:52:13;;;;;;;5.72;2.83;;;;;;;14.16;82.42;101325.31;7401922;19;19936;-77
2023/08/29 00:54:42;;;;;;;5.40;2.42;;;;;;;14.11;82.98;101331.31;7399276;19;19932;-78
2023/08/29 00:57:11;;;;;;;4.18;3.00;;;;;;;14.05;83.06;101332.91;7400930;19;19927;-77
2023/08/29 00:59:40;;;;;;;4.68;3.10;;;;;;;14.03;83.04;101334.97;7398519;19;19922;-78
2023/08/29 01:02:09;;;;;;;3.78;2.50;;;;;;;14.02;83.35;101327.03;7400516;19;19934;-77
2023/08/29 01:04:40;;;;;;;3.42;2.50;;;;;;;14.04;82.69;101325.81;7399481;19;19923;-77
2023/08/29 01:07:09;;;;;;;4.95;2.92;;;;;;;14.05;83.17;101322.06;7401235;19;19923;-77
2023/08/29 01:09:38;;;;;;;4.78;2.85;;;;;;;14.04;82.88;101317.69;7398787;19;19922;-77
2023/08/29 01:12:39;;;;;;;6.68;3.03;;;;;;;13.99;82.91;101320.13;7399274;19;19930;-77
2023/08/29 01:15:13;;;;;;;8.07;4.57;;;;;;;13.98;83.32;101314.88;7400438;19;20296;-77
2023/08/29 01:17:50;;;;;;;8.93;3.97;;;;;;;13.95;83.73;101307.97;7398969;19;19925;-77
2023/08/29 01:20:22;;;;;;;6.65;4.05;;;;;;;13.97;83.55;101310.50;7400146;19;19923;-77
2023/08/29 01:22:59;;;;;;;6.53;3.83;;;;;;;13.90;83.76;101307.69;7400368;19;19923;-78
2023/08/29 01:25:33;;;;;;;;;;;;;;;13.64;85.45;101308.16;7403089;19;19939;-78
2023/08/29 01:28:06;;;;;;;7.22;4.20;;;;;;;13.76;83.66;101297.72;7399076;19;19927;-78
2023/08/29 01:30:35;;;;;;;9.32;4.60;;;;;;;13.75;83.68;101304.16;7398324;19;19915;-77
2023/08/29 01:33:04;;;;;;;7.85;4.40;;;;;;;13.73;83.73;101319.75;7397483;19;19918;-77
2023/08/29 01:35:32;;;;;;;7.30;4.85;;;;;;;13.73;83.87;101318.91;7400524;19;19923;-77
2023/08/29 01:38:01;;;;;;;8.70;4.50;;;;;;;13.73;83.69;101318.91;7398309;19;20352;-77
2023/08/29 01:40:30;;;;;;;8.20;4.43;;;;;;;13.75;84.41;101328.53;7399235;19;19914;-77
2023/08/29 01:42:58;;;;;;;7.82;4.53;;;;;;;13.78;84.40;101321.91;7399801;19;19926;-77
2023/08/29 01:45:30;;;;;;;7.82;4.05;;;;;;;13.80;84.34;101323.41;7400924;19;19930;-77
2023/08/29 01:48:00;;;;;;;6.45;4.32;;;;;;;13.80;84.47;101325.28;7399181;19;19990;-77
2023/08/29 01:50:32;;;;;;;7.35;3.85;;;;;;;13.78;84.59;101322.75;7397851;19;20360;-77
2023/08/29 01:53:02;;;;;;;6.60;4.05;;;;;;;13.77;84.68;101328.34;7398808;19;19941;-77
2023/08/29 01:55:32;;;;;;;7.88;3.83;;;;;;;13.75;84.73;101330.41;7400378;19;20284;-77
2023/08/29 01:58:04;;;;;;;6.18;3.90;;;;;;;13.73;84.64;101327.03;7400194;19;19938;-77
2023/08/29 02:00:35;;;;;;;7.05;3.47;;;;;;;13.70;84.72;101341.78;7399961;19;19923;-77
2023/08/29 02:03:04;;;;;;;;;;;;;;;13.46;86.53;101331.22;7402179;19;20336;-77
2023/08/29 02:05:52;;;;;;;8.10;3.40;;;;;;;13.58;85.10;101329.75;7397057;19;20447;-77
2023/08/29 02:08:21;;;;;;;6.28;3.80;;;;;;;13.60;85.17;101325.81;7398312;19;19935;-77
2023/08/29 02:10:49;;;;;;;5.97;3.67;;;;;;;13.60;84.78;101323.09;7400072;19;20296;-77
2023/08/29 02:13:18;;;;;;;7.90;3.40;;;;;;;13.60;84.73;101342.06;7398259;19;19934;-77
2023/08/29 02:15:49;;;;;;;4.82;3.25;;;;;;;13.58;84.59;101349.53;7399644;19;19945;-78
2023/08/29 02:18:18;;;;;;;6.03;3.53;;;;;;;13.54;84.78;101341.97;7397329;19;19946;-77
2023/08/29 02:20:47;;;;;;;5.28;2.63;;;;;;;13.49;84.85;101339.81;7398939;19;19922;-77
2023/08/29 02:23:15;;;;;;;4.30;2.92;;;;;;;13.47;85.33;101341.84;7399196;19;19922;-78
2023/08/29 02:25:44;;;;;;;5.18;2.88;;;;;;;13.45;84.90;101343.06;7399583;19;19929;-77
2023/08/29 02:28:13;;;;;;;6.50;3.08;;;;;;;13.41;85.03;101348.03;7396923;19;20397;-77
2023/08/29 02:30:42;;;;;;;5.10;2.72;;;;;;;13.36;85.29;101355.84;7398177;19;19949;-77
2023/08/29 02:33:13;;;;;;;4.68;2.58;;;;;;;13.34;85.09;101357.88;7399070;19;19953;-77
2023/08/29 02:35:42;;;;;;;3.78;3.00;;;;;;;13.33;85.05;101356.19;7398148;19;19923;-77
2023/08/29 02:38:11;;;;;;;4.15;2.83;;;;;;;13.32;85.26;101359.94;7397021;19;19927;-77
2023/08/29 02:40:40;;;;;;;4.05;2.40;;;;;;;13.30;85.39;101361.13;7397197;19;20018;-77
2023/08/29 02:43:08;;;;;;;4.72;3.03;;;;;;;13.27;85.42;101359.63;7399111;19;20663;-77
2023/08/29 02:45:37;;;;;;;4.32;2.67;;;;;;;13.27;85.51;101373.16;7397856;19;19914;-78
2023/08/29 02:48:06;;;;;;;4.72;3.03;;;;;;;13.25;85.56;101367.09;7398117;19;19939;-77
2023/08/29 02:50:39;;;;;;;2.63;2.10;;;;;;;13.24;85.06;101370.84;7395775;19;20293;-78
2023/08/29 02:53:07;;;;;;;3.75;2.25;;;;;;;13.24;85.13;101362.72;7395556;19;19919;-78
2023/08/29 02:55:36;;;;;;;5.90;2.70;;;;;;;13.23;85.14;101365.59;7393225;19;19977;-77
2023/08/29 02:58:05;;;;;;;3.03;2.13;;;;;;;13.19;85.17;101373.25;7398302;19;19923;-77
2023/08/29 03:00:34;;;;;;;3.65;2.25;;;;;;;13.16;85.12;101369.00;7393451;19;19930;-77
2023/08/29 03:03:04;;;;;;;3.78;2.20;;;;;;;13.14;85.15;101362.97;7387795;19;19959;-77
2023/08/29 03:05:33;;;;;;;3.55;2.03;;;;;;;13.11;84.97;101367.91;7395896;19;20383;-78
2023/08/29 03:08:06;;;;;;;3.33;1.90;;;;;;;13.06;84.96;101376.53;7394571;19;20066;-78
2023/08/29 03:10:38;;;;;;;3.05;1.77;;;;;;;13.03;84.76;101381.47;7389792;19;19918;-77
2023/08/29 03:13:07;;;;;;;2.97;2.00;;;;;;;13.00;84.84;101384.50;7394914;19;19923;-78
2023/08/29 03:15:36;;;;;;;3.25;1.98;;;;;;;12.96;84.67;101372.38;7391635;19;19925;-78
2023/08/29 03:18:04;;;;;;;2.38;1.92;;;;;;;12.92;84.35;101365.63;7395261;19;19929;-77
2023/08/29 03:20:34;;;;;;;2.65;1.77;;;;;;;12.88;84.67;101356.19;7391060;19;20514;-77
2023/08/29 03:23:25;;;;;;;3.80;1.83;;;;;;;12.81;84.20;101347.97;7388647;19;19926;-78
2023/08/29 03:26:04;;;;;;;2.55;1.88;;;;;;;12.70;84.51;101353.78;7393469;19;19925;-77
2023/08/29 03:28:33;;;;;;;2.35;1.70;;;;;;;12.68;84.71;101350.44;7382665;19;19934;-77
2023/08/29 03:31:10;;;;;;;3.13;2.00;;;;;;;12.65;84.68;101350.78;7395601;19;19961;-78
2023/08/29 03:33:59;;;;;;;3.60;1.98;;;;;;;12.65;84.84;101350.78;7382006;19;19914;-77
2023/08/29 03:36:27;;;;;;;2.55;1.70;;;;;;;12.62;84.68;101351.97;7388459;19;19927;-77
2023/08/29 03:38:58;;;;;;;2.40;1.80;;;;;;;12.63;84.63;101342.03;7375452;19;19986;-77
2023/08/29 03:41:27;;;;;;;2.80;1.70;;;;;;;12.58;84.53;101349.81;7381603;19;19927;-77
2023/08/29 03:43:56;;;;;;;3.72;1.80;;;;;;;12.54;84.71;101352.03;7376368;19;19915;-77
2023/08/29 03:46:44;;;;;;;4.82;2.35;;;;;;;12.50;84.91;101348.00;7387916;19;20329;-77
2023/08/29 03:49:33;;;;;;;2.65;1.95;;;;;;;12.49;84.83;101362.53;7377328;19;19922;-78
2023/08/29 03:52:03;;;;;;;2.72;1.90;;;;;;;12.49;85.13;101362.53;7377303;19;19947;-77
2023/08/29 03:54:37;;;;;;;3.20;1.88;;;;;;;12.48;85.25;101350.03;7379375;19;19927;-77
2023/08/29 03:57:06;;;;;;;3.60;1.83;;;;;;;12.41;85.48;101349.06;7390323;19;19971;-77
2023/08/29 03:59:35;;;;;;;2.30;1.30;;;;;;;12.36;85.53;101346.06;7384297;19;19930;-77
2023/08/29 04:02:06;;;;;;;1.95;1.60;;;;;;;12.32;85.90;101349.28;7383910;19;19923;-77
2023/08/29 04:04:35;;;;;;;2.53;1.45;;;;;;;12.28;85.99;101356.91;7393831;19;19922;-77
2023/08/29 04:07:04;;;;;;;2.67;1.60;;;;;;;12.24;86.12;101347.47;7396444;19;19954;-77
2023/08/29 04:09:35;;;;;;;3.42;1.35;;;;;;;12.23;86.70;101338.53;7395592;19;19985;-77
2023/08/29 04:12:07;;;;;;;2.10;1.50;;;;;;;12.25;86.58;101338.34;7396785;19;20321;-77
2023/08/29 04:14:36;;;;;;;2.20;1.30;;;;;;;12.24;86.71;101339.38;7393091;19;19930;-77
2023/08/29 04:17:05;;;;;;;2.33;1.75;;;;;;;12.28;87.03;101332.59;7395732;19;19922;-77
2023/08/29 04:19:34;;;;;;;3.20;1.90;;;;;;;12.31;86.76;101337.63;7392219;19;19938;-77
2023/08/29 04:22:03;;;;;;;2.42;1.85;;;;;;;12.33;86.98;101338.31;7396448;19;19921;-78
2023/08/29 04:24:34;;;;;;;3.35;2.13;;;;;;;12.34;87.01;101348.06;7394627;19;19939;-77
2023/08/29 04:27:03;;;;;;;2.45;1.90;;;;;;;12.34;86.81;101323.75;7395951;19;19951;-77
2023/08/29 04:29:31;;;;;;;4.78;1.80;;;;;;;12.33;86.67;101321.25;7394622;19;19971;-77
2023/08/29 04:32:00;;;;;;;3.03;1.83;;;;;;;12.30;86.63;101311.63;7394227;19;19957;-77
2023/08/29 04:34:29;;;;;;;2.85;2.00;;;;;;;12.28;87.07;101314.53;7393487;19;19957;-77
2023/08/29 04:36:58;;;;;;;3.35;1.70;;;;;;;12.26;87.08;101315.69;7395700;19;19964;-77
2023/08/29 04:39:28;;;;;;;2.67;1.77;;;;;;;12.26;87.10;101313.00;7394001;19;20544;-77
2023/08/29 04:42:02;;;;;;;2.97;2.10;;;;;;;12.26;86.99;101313.00;7391133;19;19933;-77
2023/08/29 04:44:33;;;;;;;3.30;2.22;;;;;;;12.26;87.21;101318.41;7394341;19;19953;-77
2023/08/29 04:47:03;;;;;;;5.03;2.63;;;;;;;12.24;87.46;101315.06;7394396;19;19927;-77
2023/08/29 04:49:33;;;;;;;3.40;1.95;;;;;;;12.22;87.58;101319.78;7395938;19;19990;-77
2023/08/29 04:52:01;;;;;;;2.60;1.67;;;;;;;12.22;87.53;101319.78;7393036;19;19919;-77
2023/08/29 04:54:50;;;;;;;3.03;2.25;;;;;;;12.19;87.58;101318.28;7392317;19;19978;-78
2023/08/29 04:57:21;;;;;;;3.55;2.00;;;;;;;12.20;87.74;101314.56;7393627;19;19937;-77
2023/08/29 04:59:50;;;;;;;3.60;2.03;;;;;;;12.20;87.73;101321.84;7392100;19;20364;-77
2023/08/29 05:02:19;;;;;;;5.20;2.40;;;;;;;12.19;88.07;101317.44;7390386;19;19933;-77
2023/08/29 05:04:48;;;;;;;2.95;2.30;;;;;;;12.20;87.83;101313.72;7385186;19;19923;-77
2023/08/29 05:07:17;;;;;;;6.05;2.58;;;;;;;12.21;87.72;101309.97;7389467;19;19932;-77
2023/08/29 05:09:46;;;;;;;3.03;2.15;;;;;;;12.24;87.72;101296.16;7392433;19;19926;-77
2023/08/29 05:12:15;;;;;;;4.07;2.60;;;;;;;12.28;87.62;101302.88;7386208;19;21407;-77
2023/08/29 05:14:46;;;;;;;4.40;2.22;;;;;;;12.30;87.41;101300.81;7390172;19;19946;-77
2023/08/29 05:17:15;;;;;;;2.28;1.92;;;;;;;12.32;87.39;101300.66;7383825;19;19933;-77
2023/08/29 05:19:44;;;;;;;4.28;2.30;;;;;;;12.32;87.32;101298.78;7392513;19;19923;-77
2023/08/29 05:22:14;;;;;;;4.15;2.85;;;;;;;12.35;87.12;101289.47;7374715;19;19915;-77
2023/08/29 05:24:42;;;;;;;5.88;2.60;;;;;;;12.36;87.17;101292.00;7389155;19;19926;-77
2023/08/29 05:27:11;;;;;;;4.38;2.53;;;;;;;12.38;87.14;101286.44;7397036;19;20013;-77
2023/08/29 05:29:41;;;;;;;4.05;2.40;;;;;;;12.38;87.27;101290.00;7393672;19;20364;-77
2023/08/29 05:32:12;;;;;;;2.72;2.13;;;;;;;12.42;87.24;101295.88;7399490;19;19953;-78
2023/08/29 05:34:41;;;;;;;3.90;2.22;;;;;;;12.44;87.03;101289.25;7400641;19;19949;-79
2023/08/29 05:37:10;;;;;;;2.78;2.38;;;;;;;12.47;86.65;101283.50;7399137;19;20261;-77
2023/08/29 05:39:39;;;;;;;4.03;1.95;;;;;;;12.50;86.46;101277.75;7392884;19;19918;-78
2023/08/29 05:42:08;;;;;;;4.28;2.33;;;;;;;12.54;86.41;101276.38;7400496;19;19918;-77
2023/08/29 05:44:38;;;;;;;3.63;2.03;;;;;;;12.53;86.60;101277.38;7398959;19;20022;-78
2023/08/29 05:47:07;;;;;;;2.75;1.90;;;;;;;12.54;86.67;101273.66;7399526;19;19950;-76
2023/08/29 05:49:38;;;;;;;2.92;1.98;;;;;;;12.55;86.63;101275.34;7399628;19;19922;-82
2023/08/29 05:52:08;;;;;;;3.20;2.30;;;;;;;12.57;86.54;101269.75;7401221;19;20348;-75
2023/08/29 05:54:37;;;;;;;3.25;2.05;;;;;;;12.59;86.70;101270.41;7362695;19;19969;-77
2023/08/29 05:57:07;;;;;;;3.00;1.95;;;;;;;12.63;86.85;101275.28;7390443;19;19943;-75
2023/08/29 05:59:36;;;;;;;3.75;1.77;;;;;;;12.67;87.72;101265.78;7398213;19;19918;-75
2023/08/29 06:02:05;;;;;;;3.30;2.13;;;;;;;12.73;87.87;101280.44;7394313;19;19943;-76
2023/08/29 06:04:34;;;;;;;2.47;1.70;;;;;;;12.78;87.44;101277.19;7400180;19;19933;-76
2023/08/29 06:07:07;;;;;;;3.03;2.08;;;;;;;12.83;87.83;101277.47;7400657;19;19950;-75
2023/08/29 06:09:38;;;;;;;2.70;2.00;;;;;;;12.89;87.67;101276.78;7403422;19;19914;-76
2023/08/29 06:12:07;;;;;;;3.15;1.80;;;;;;;12.94;87.71;101267.09;7394874;19;19923;-76
2023/08/29 06:14:38;;;;;;;3.78;1.90;;;;;;;12.99;87.56;101275.47;7395256;19;19946;-81
2023/08/29 06:17:27;;;;;;;3.33;1.83;;;;;;;13.02;88.09;101264.31;7400906;19;19922;-80
2023/08/29 06:19:55;;;;;;;2.30;1.70;;;;;;;13.06;87.99;101271.03;7401963;19;19927;-81
2023/08/29 06:22:29;;;;;;;4.10;1.70;;;;;;;13.11;87.76;101267.81;7397090;19;19918;-76
2023/08/29 06:24:57;;;;;;;2.20;1.60;;;;;;;13.17;88.06;101280.59;7390917;19;19919;-77
2023/08/29 06:27:26;;;;;;;3.38;1.92;;;;;;;13.21;87.80;101279.19;7397815;19;20380;-76
2023/08/29 06:29:54;;;;;;;2.83;2.25;;;;;;;13.25;88.07;101274.25;7384276;19;19922;-76
2023/08/29 06:32:23;;;;;;;3.38;2.10;;;;;;;13.30;87.83;101279.94;7394755;19;19978;-76
2023/08/29 06:34:52;;;;;;;3.45;2.00;;;;;;;13.35;87.72;101286.50;7401683;19;20451;-77
2023/08/29 06:37:20;;;;;;;6.47;1.70;;;;;;;13.36;87.89;101280.06;7395469;19;19931;-76
2023/08/29 06:39:51;;;;;;;2.33;1.70;;;;;;;13.38;88.00;101287.97;7397368;19;19935;-76
2023/08/29 06:42:20;;;;;;;3.85;1.33;;;;;;;13.39;87.80;101279.69;7399722;19;19939;-76
2023/08/29 06:44:48;;;;;;;4.88;1.88;;;;;;;13.41;87.78;101283.06;7394157;19;20547;-77
2023/08/29 06:47:17;;;;;;;3.70;1.60;;;;;;;13.45;87.87;101283.53;7395083;19;20384;-77
2023/08/29 06:49:46;;;;;;;2.90;1.90;;;;;;;13.48;87.69;101283.16;7398052;19;19926;-77
2023/08/29 06:52:14;;;;;;;2.88;1.83;;;;;;;13.50;87.83;101275.69;7396033;19;19950;-77
2023/08/29 06:55:06;;;;;;;4.10;1.83;;;;;;;13.53;87.95;101286.16;7399087;19;19918;-77
2023/08/29 06:57:34;;;;;;;4.68;1.90;;;;;;;13.55;88.10;101282.22;7398141;19;20344;-77
2023/08/29 07:00:03;;;;;;;3.38;2.25;;;;;;;13.61;88.14;101294.16;7397759;19;19926;-77
2023/08/29 07:02:35;;;;;;;2.78;1.70;;;;;;;13.66;88.07;101296.31;7399241;19;19930;-77
2023/08/29 07:05:04;;;;;;;3.50;2.30;;;;;;;13.69;88.39;101294.06;7396278;19;19923;-77
2023/08/29 07:07:33;;;;;;;3.95;2.13;;;;;;;13.76;88.61;101288.75;7399678;19;20364;-77
2023/08/29 07:10:02;;;;;;;3.42;2.03;;;;;;;13.82;88.18;101291.53;7400066;19;20701;-77
2023/08/29 07:12:34;;;;;;;2.85;2.05;;;;;;;13.90;88.74;101296.00;7400184;19;19939;-77
2023/08/29 07:15:03;;;;;;;6.53;2.30;;;;;;;13.95;88.88;101290.88;7400125;19;19988;-77
2023/08/29 07:17:32;;;;;;;4.13;2.60;;;;;;;14.03;88.81;101290.78;7398515;19;19926;-77
2023/08/29 07:20:21;;;;;;;5.20;2.42;;;;;;;14.12;89.64;101283.38;7398227;19;19921;-77
2023/08/29 07:22:50;;;;;;;7.32;3.10;;;;;;;14.17;89.47;101287.19;7398961;19;19938;-76
2023/08/29 07:25:20;;;;;;;4.70;2.20;;;;;;;14.24;88.93;101293.53;7400247;19;20377;-76
2023/08/29 07:27:51;;;;;;;3.00;2.17;;;;;;;14.32;88.67;101289.88;7397038;19;19922;-77
2023/08/29 07:30:20;;;;;;;2.83;1.88;;;;;;;14.38;88.46;101294.56;7396782;19;19918;-76
2023/08/29 07:32:49;;;;;;;4.85;1.77;;;;;;;14.46;88.80;101291.72;7399123;19;20254;-76
2023/08/29 07:35:40;;;;;;;3.40;1.75;;;;;;;14.57;88.39;101285.81;7397013;19;20008;-77
2023/08/29 07:38:09;;;;;;;4.28;1.70;;;;;;;14.69;88.08;101280.72;7397405;19;19922;-76
2023/08/29 07:40:38;;;;;;;4.20;1.70;;;;;;;14.81;87.81;101281.88;7397829;19;19998;-76
2023/08/29 07:43:11;;;;;;;2.38;1.42;;;;;;;14.95;87.47;101272.81;7397942;19;20264;-77
2023/08/29 07:45:40;;;;;;;2.38;1.42;;;;;;;15.10;87.25;101270.84;7397640;19;19922;-77
2023/08/29 07:48:12;;;;;;;1.95;1.20;;;;;;;15.26;86.73;101276.00;7397280;19;19935;-77
2023/08/29 07:50:40;;;;;;;2.30;1.20;;;;;;;15.42;86.12;101274.84;7396864;19;19914;-77
2023/08/29 07:53:09;;;;;;;2.78;1.30;;;;;;;15.57;85.43;101274.78;7397366;19;19915;-77
2023/08/29 07:55:40;;;;;;;3.00;1.00;;;;;;;15.68;83.98;101268.75;7399483;19;19939;-77
2023/08/29 07:58:12;;;;;;;2.70;0.90;;;;;;;15.81;83.04;101274.25;7398447;19;19929;-76
2023/08/29 08:00:40;;;;;;;2.10;1.05;;;;;;;15.91;82.60;101276.63;7398914;19;19918;-77
2023/08/29 08:03:09;;;;;;;1.50;0.80;;;;;;;15.99;81.56;101271.84;7395669;19;19944;-77
2023/08/29 08:05:38;;;;;;;2.25;1.33;;;;;;;16.10;80.82;101271.25;7393404;19;20838;-76
2023/08/29 08:08:10;;;;;;;2.03;0.93;;;;;;;16.19;81.23;101266.47;7396366;19;19926;-77
2023/08/29 08:10:39;;;;;;;2.72;1.00;;;;;;;16.29;81.06;101272.38;7395779;19;19926;-76
2023/08/29 08:13:13;;;;;;;1.23;0.95;;;;;;;16.34;80.58;101272.59;7398985;19;19960;-77
2023/08/29 08:15:42;;;;;;;5.40;1.15;;;;;;;16.44;80.44;101283.09;7398457;19;20337;-77
2023/08/29 08:18:10;;;;;;;1.42;0.70;;;;;;;16.52;80.19;101272.88;7396373;19;19946;-77
2023/08/29 08:20:39;;;;;;;1.67;0.85;;;;;;;16.59;79.60;101283.78;7396453;19;20354;-77
2023/08/29 08:23:08;;;;;;;2.88;1.00;;;;;;;16.66;79.30;101287.34;7396352;19;19918;-77
2023/08/29 08:25:37;;;;;;;1.17;1.05;;;;;;;16.72;78.87;101284.66;7398415;19;20409;-76
2023/08/29 08:28:06;;;;;;;1.50;0.98;;;;;;;16.81;78.83;101293.44;7395050;19;19951;-77
2023/08/29 08:30:39;;;;;;;1.75;0.50;;;;;;;16.87;77.58;101287.16;7396754;19;19933;-77
2023/08/29 08:33:11;;;;;;;1.48;0.50;;;;;;;16.93;76.83;101286.34;7395864;19;19922;-76
2023/08/29 08:35:39;;;;;;;;;;;;;;;16.84;74.85;101281.28;7401292;19;19923;-77
2023/08/29 08:38:09;;;;;;;1.85;0.93;;;;;;;16.98;77.26;101289.28;7395545;19;19923;-77
2023/08/29 08:40:39;;;;;;;1.45;0.70;;;;;;;17.04;76.48;101288.41;7391151;19;20470;-77
2023/08/29 08:43:08;;;;;;;1.25;0.55;;;;;;;17.11;76.81;101283.84;7394043;19;19926;-77
2023/08/29 08:45:41;;;;;;;2.03;0.70;;;;;;;17.18;75.44;101281.94;7395781;19;20340;-77
2023/08/29 08:48:09;;;;;;;1.83;0.60;;;;;;;17.28;75.97;101283.41;7395201;19;19922;-76
2023/08/29 08:50:41;;;;;;;1.85;0.50;;;;;;;17.32;74.53;101279.19;7395801;19;19943;-78
2023/08/29 08:53:12;;;;;;;3.33;0.57;;;;;;;17.31;74.48;101283.81;7389396;19;20574;-76
2023/08/29 08:55:41;;;;;;;0.80;0.47;;;;;;;17.32;73.59;101281.94;7393273;19;19930;-77
2023/08/29 08:58:10;;;;;;;0.65;0.60;;;;;;;17.36;73.70;101283.19;7396906;19;19933;-77
2023/08/29 09:00:41;;;;;;;2.03;0.60;;;;;;;17.50;73.43;101284.84;7395678;19;19982;-76
2023/08/29 09:03:10;;;;;;;1.38;0.50;;;;;;;17.57;73.54;101291.09;7404589;19;19914;-76
2023/08/29 09:05:41;;;;;;;2.08;0.50;;;;;;;17.54;71.09;101286.94;7400110;19;19922;-77
2023/08/29 09:08:10;;;;;;;1.20;0.40;;;;;;;17.57;71.82;101288.38;7402764;19;19939;-77
2023/08/29 09:10:41;;;;;;;0.55;0.40;;;;;;;17.59;71.65;101289.06;7402704;19;19942;-77
2023/08/29 09:13:18;;;;;;;1.10;0.40;;;;;;;17.61;70.91;101290.50;7403646;19;19931;-76
2023/08/29 09:15:51;;;;;;;1.77;0.35;;;;;;;17.68;71.25;101290.50;7401429;19;20284;-76
2023/08/29 09:18:28;;;;;;;1.02;0.50;;;;;;;17.87;70.55;101281.41;7402631;19;19922;-76
2023/08/29 09:21:00;;;;;;;1.58;0.70;;;;;;;18.00;70.58;101285.97;7398536;19;20319;-76
2023/08/29 09:23:32;;;;;;;1.55;0.85;;;;;;;18.20;68.51;101288.66;7403801;19;19922;-76
2023/08/29 09:26:20;;;;;;;4.43;1.48;;;;;;;18.16;67.81;101292.84;7400289;19;20348;-76
2023/08/29 09:28:49;;;;;;;0.70;0.40;;;;;;;18.14;67.78;101288.44;7402208;19;20367;-76
2023/08/29 09:31:20;;;;;;;0.40;0.40;;;;;;;18.18;67.54;101290.75;7401914;19;19943;-76
2023/08/29 09:33:50;;;;;;;1.17;0.70;;;;;;;18.22;68.16;101295.53;7402972;19;19952;-76
2023/08/29 09:36:16;;;;;;;3.30;0.88;;;;;;;18.35;67.71;101297.38;7399680;19;19918;-77
2023/08/29 09:38:45;;;;;;;2.03;0.50;;;;;;;18.55;67.08;101292.69;7399757;19;20437;-77
2023/08/29 09:41:15;;;;;;;1.42;0.50;;;;;;;18.63;66.35;101286.13;7403314;19;19914;-77
2023/08/29 09:43:49;;;;;;;1.20;0.65;;;;;;;18.53;65.55;101290.19;7399129;19;19933;-76
2023/08/29 09:46:28;;;;;;;1.73;0.68;;;;;;;18.43;65.71;101291.66;7402522;19;19918;-76
2023/08/29 09:48:57;;;;;;;1.85;0.70;;;;;;;18.36;67.18;101291.72;7401178;19;19922;-76
2023/08/29 09:51:27;;;;;;;1.52;0.60;;;;;;;18.28;66.24;101288.41;7399959;19;20298;-76
2023/08/29 09:53:59;;;;;;;0.95;0.60;;;;;;;18.34;66.18;101291.06;7394459;19;20819;-80
2023/08/29 09:56:30;;;;;;;1.60;0.52;;;;;;;18.43;65.82;101294.38;7402100;19;20267;-74
2023/08/29 09:59:02;;;;;;;2.80;0.60;;;;;;;18.58;65.06;101286.78;7400503;19;19957;-74
2023/08/29 10:01:33;;;;;;;;;;;;;;;18.61;64.72;101285.50;7402278;19;19936;-74
2023/08/29 10:04:06;;;;;;;1.02;0.40;;;;;;;18.82;64.70;101287.88;7401450;19;20930;-74
2023/08/29 10:06:38;;;;;;;1.73;0.40;;;;;;;18.96;64.55;101284.00;7402260;19;19918;-75
2023/08/29 10:09:06;;;;;;;;;;;;;;;19.02;62.76;101280.38;7404588;19;19919;-74
2023/08/29 10:11:35;;;;;;;0.70;0.52;;;;;;;19.17;63.31;101274.56;7399514;19;19934;-75
2023/08/29 10:14:06;;;;;;;1.60;0.55;;;;;;;19.16;63.22;101276.47;7400000;19;19931;-74
2023/08/29 10:16:39;;;;;;;1.85;1.17;;;;;;;18.99;62.70;101276.19;7399627;19;19974;-75
2023/08/29 10:19:07;;;;;;;3.42;0.80;;;;;;;18.89;63.07;101270.41;7401836;19;20309;-74
2023/08/29 10:21:36;;;;;;;1.25;0.60;;;;;;;18.94;62.82;101276.00;7400002;19;19910;-74
2023/08/29 10:24:27;;;;;;;0.60;0.32;;;;;;;19.06;62.96;101275.31;7397038;19;19918;-74
2023/08/29 10:26:57;;;;;;;0.40;0.40;;;;;;;19.16;62.63;101276.47;7399910;19;19983;-74
2023/08/29 10:29:26;;;;;;;1.17;0.65;;;;;;;19.20;62.50;101265.97;7399556;19;19935;-73
2023/08/29 10:31:58;;;;;;;1.10;0.50;;;;;;;19.21;61.15;101270.34;7399120;19;19915;-74
2023/08/29 10:34:30;;;;;;;0.60;0.30;;;;;;;19.20;60.48;101265.97;7400439;19;19981;-74
2023/08/29 10:36:59;;;;;;;;;;;;;;;19.15;58.44;101266.63;7402097;19;19926;-74
2023/08/29 10:39:29;;;;;;;3.08;0.60;;;;;;;19.40;60.92;101267.44;7398326;19;20388;-74
2023/08/29 10:41:59;;;;;;;0.93;0.47;;;;;;;19.63;60.95;101269.53;7398550;19;20369;-73
2023/08/29 10:44:40;;;;;;;2.70;0.98;;;;;;;19.80;57.12;101254.19;7400120;19;19949;-73
2023/08/29 10:47:26;;;;;;;0.85;0.40;;;;;;;19.96;57.42;101258.22;7400761;19;19914;-73
2023/08/29 10:50:02;;;;;;;1.77;0.45;;;;;;;20.01;57.98;101252.91;7400784;19;19958;-73
2023/08/29 10:52:39;;;;;;;0.68;0.30;;;;;;;20.01;58.25;101252.91;7397870;19;20587;-73
2023/08/29 10:55:21;;;;;;;1.83;0.52;;;;;;;19.97;58.07;101248.13;7399659;19;20026;-73
2023/08/29 10:57:51;;;;;;;7.07;1.85;;;;;;;20.05;57.83;101251.38;7400450;19;20014;-73
2023/08/29 11:00:36;;;;;;;0.55;0.30;;;;;;;20.10;57.42;101245.22;7400354;19;20405;-73
2023/08/29 11:03:07;;;;;;;0.50;0.40;;;;;;;20.20;57.61;101242.75;7396953;19;19941;-80
2023/08/29 11:05:40;;;;;;;1.10;0.40;;;;;;;20.31;57.26;101242.00;7398636;19;20304;-77
2023/08/29 11:08:22;;;;;;;0.50;0.50;;;;;;;20.27;55.43;101248.97;7397293;19;19935;-77
2023/08/29 11:11:16;;;;;;;0.73;0.40;;;;;;;20.24;55.52;101233.84;7400018;19;19932;-80
2023/08/29 11:13:58;;;;;;;0.50;0.30;;;;;;;20.22;57.32;101241.47;7399530;19;19928;-77
2023/08/29 11:16:27;;;;;;;0.57;0.40;;;;;;;20.29;57.09;101236.75;7399629;19;20297;-79
2023/08/29 11:19:06;;;;;;;0.90;0.47;;;;;;;20.27;55.60;101232.56;7401120;19;19962;-82
2023/08/29 11:21:36;;;;;;;1.58;0.50;;;;;;;20.37;58.17;101239.16;7399596;19;19914;-79
2023/08/29 11:24:05;;;;;;;1.02;0.30;;;;;;;20.48;56.99;101231.25;7396098;19;19927;-78
2023/08/29 11:26:35;;;;;;;0.80;0.43;;;;;;;20.56;56.33;101219.94;7395523;19;19922;-77
2023/08/29 11:29:05;;;;;;;1.27;0.70;;;;;;;20.71;55.34;101220.34;7390668;19;19949;-76
2023/08/29 11:31:34;;;;;;;0.40;0.40;;;;;;;20.74;55.50;101212.50;7397328;19;19923;-76
2023/08/29 11:34:06;;;;;;;1.48;0.57;;;;;;;20.76;54.36;101218.56;7397376;19;19946;-76
2023/08/29 11:36:35;;;;;;;0.75;0.45;;;;;;;20.88;54.46;101218.59;7397558;19;19922;-77
2023/08/29 11:39:04;;;;;;;1.45;0.47;;;;;;;20.80;54.12;101219.75;7396778;19;19929;-76
2023/08/29 11:41:32;;;;;;;0.30;0.30;;;;;;;20.88;55.07;101212.28;7399019;19;19919;-76
2023/08/29 11:44:01;;;;;;;3.72;0.70;;;;;;;21.13;55.66;101212.94;7398798;19;20344;-76
2023/08/29 11:46:35;;;;;;;1.42;0.40;;;;;;;21.33;54.75;101207.91;7399367;19;19926;-76